sensor_id;sensor_type;location;lat;lon;timestamp;temperature;humidity
20057;DHT22;10189;49.546;7.906;2024-03-23T00:51:48;5.80;99.90
20057;DHT22;10189;49.546;7.906;2024-03-23T00:54:14;5.80;99.90
20057;DHT22;10189;49.546;7.906;2024-03-23T00:56:40;5.80;99.90
20057;DHT22;10189;49.546;7.906;2024-03-23T00:59:06;5.80;99.90
20057;DHT22;10189;49.546;7.906;2024-03-23T01:01:32;5.90;99.90
20057;DHT22;10189;49.546;7.906;2024-03-23T01:03:58;5.90;99.90
20057;DHT22;10189;49.546;7.906;2024-03-23T01:06:24;5.90;99.90
20057;DHT22;10189;49.546;7.906;2024-03-23T01:08:50;5.90;99.90
20057;DHT22;10189;49.546;7.906;2024-03-23T01:11:16;5.90;99.90
20057;DHT22;10189;49.546;7.906;2024-03-23T01:13:42;6.00;99.90
20057;DHT22;10189;49.546;7.906;2024-03-23T01:16:08;6.10;99.90
20057;DHT22;10189;49.546;7.906;2024-03-23T01:18:34;6.10;99.90
20057;DHT22;10189;49.546;7.906;2024-03-23T01:20:59;6.10;99.90
20057;DHT22;10189;49.546;7.906;2024-03-23T01:23:25;6.10;99.90
20057;DHT22;10189;49.546;7.906;2024-03-23T01:25:54;6.20;99.90
20057;DHT22;10189;49.546;7.906;2024-03-23T01:28:21;6.20;99.90
20057;DHT22;10189;49.546;7.906;2024-03-23T01:30:47;6.20;99.90
20057;DHT22;10189;49.546;7.906;2024-03-23T01:33:14;6.30;99.90
20057;DHT22;10189;49.546;7.906;2024-03-23T01:35:40;6.60;99.90
20057;DHT22;10189;49.546;7.906;2024-03-23T01:38:06;6.70;99.90
20057;DHT22;10189;49.546;7.906;2024-03-23T01:40:32;6.80;99.90
20057;DHT22;10189;49.546;7.906;2024-03-23T01:43:01;7.00;99.90
20057;DHT22;10189;49.546;7.906;2024-03-23T01:45:29;7.20;99.90
20057;DHT22;10189;49.546;7.906;2024-03-23T01:47:56;7.40;99.90
20057;DHT22;10189;49.546;7.906;2024-03-23T01:50:22;7.50;99.90
20057;DHT22;10189;49.546;7.906;2024-03-23T01:52:51;7.70;99.90
20057;DHT22;10189;49.546;7.906;2024-03-23T01:55:18;7.90;99.90
20057;DHT22;10189;49.546;7.906;2024-03-23T01:57:44;8.00;99.90
20057;DHT22;10189;49.546;7.906;2024-03-23T02:00:10;8.10;99.90
20057;DHT22;10189;49.546;7.906;2024-03-23T02:02:46;8.20;99.90
20057;DHT22;10189;49.546;7.906;2024-03-23T02:05:13;8.20;99.90
20057;DHT22;10189;49.546;7.906;2024-03-23T02:07:40;8.10;99.90
20057;DHT22;10189;49.546;7.906;2024-03-23T02:10:07;8.10;99.90
20057;DHT22;10189;49.546;7.906;2024-03-23T02:12:35;8.20;99.90
20057;DHT22;10189;49.546;7.906;2024-03-23T02:15:02;8.20;99.90
20057;DHT22;10189;49.546;7.906;2024-03-23T02:17:33;8.20;99.90
20057;DHT22;10189;49.546;7.906;2024-03-23T02:20:01;8.30;99.90
20057;DHT22;10189;49.546;7.906;2024-03-23T02:22:36;8.30;99.90
20057;DHT22;10189;49.546;7.906;2024-03-23T02:25:04;8.30;99.90
20057;DHT22;10189;49.546;7.906;2024-03-23T02:27:31;8.40;99.90
20057;DHT22;10189;49.546;7.906;2024-03-23T02:29:58;8.40;99.90
20057;DHT22;10189;49.546;7.906;2024-03-23T02:32:24;8.40;99.90
20057;DHT22;10189;49.546;7.906;2024-03-23T02:34:50;8.40;99.90
20057;DHT22;10189;49.546;7.906;2024-03-23T02:37:16;8.40;99.90
20057;DHT22;10189;49.546;7.906;2024-03-23T02:39:42;8.60;99.90
20057;DHT22;10189;49.546;7.906;2024-03-23T02:42:08;8.60;99.90
20057;DHT22;10189;49.546;7.906;2024-03-23T02:44:34;8.60;99.90
20057;DHT22;10189;49.546;7.906;2024-03-23T02:47:00;8.70;99.90
20057;DHT22;10189;49.546;7.906;2024-03-23T02:49:27;8.80;99.90
20057;DHT22;10189;49.546;7.906;2024-03-23T02:51:53;8.80;99.90
20057;DHT22;10189;49.546;7.906;2024-03-23T02:54:18;8.80;99.90
20057;DHT22;10189;49.546;7.906;2024-03-23T02:56:44;8.80;99.90
20057;DHT22;10189;49.546;7.906;2024-03-23T02:59:10;8.70;99.90
20057;DHT22;10189;49.546;7.906;2024-03-23T03:01:36;8.70;99.90
20057;DHT22;10189;49.546;7.906;2024-03-23T03:04:02;8.70;99.90
20057;DHT22;10189;49.546;7.906;2024-03-23T03:06:29;8.70;99.90
20057;DHT22;10189;49.546;7.906;2024-03-23T03:08:56;8.70;99.90
20057;DHT22;10189;49.546;7.906;2024-03-23T03:11:22;8.70;99.90
20057;DHT22;10189;49.546;7.906;2024-03-23T03:13:47;8.70;99.90
20057;DHT22;10189;49.546;7.906;2024-03-23T03:16:13;8.70;99.90
20057;DHT22;10189;49.546;7.906;2024-03-23T03:18:39;8.70;99.90
20057;DHT22;10189;49.546;7.906;2024-03-23T03:21:06;8.70;99.90
20057;DHT22;10189;49.546;7.906;2024-03-23T03:23:39;8.60;99.90
20057;DHT22;10189;49.546;7.906;2024-03-23T03:26:06;8.70;99.90
20057;DHT22;10189;49.546;7.906;2024-03-23T03:28:32;8.60;99.90
20057;DHT22;10189;49.546;7.906;2024-03-23T03:30:59;8.60;99.90
20057;DHT22;10189;49.546;7.906;2024-03-23T03:33:26;8.50;99.90
20057;DHT22;10189;49.546;7.906;2024-03-23T03:35:53;8.50;99.90
20057;DHT22;10189;49.546;7.906;2024-03-23T03:38:19;8.50;99.90
20057;DHT22;10189;49.546;7.906;2024-03-23T03:40:45;8.50;99.90
20057;DHT22;10189;49.546;7.906;2024-03-23T03:43:12;8.50;99.90
20057;DHT22;10189;49.546;7.906;2024-03-23T03:45:38;8.50;99.90
20057;DHT22;10189;49.546;7.906;2024-03-23T03:48:04;8.50;99.90
20057;DHT22;10189;49.546;7.906;2024-03-23T03:50:30;8.50;99.90
20057;DHT22;10189;49.546;7.906;2024-03-23T03:52:56;8.50;99.90
20057;DHT22;10189;49.546;7.906;2024-03-23T03:55:22;8.60;99.90
20057;DHT22;10189;49.546;7.906;2024-03-23T03:57:48;8.60;99.90
20057;DHT22;10189;49.546;7.906;2024-03-23T04:00:14;8.50;99.90
20057;DHT22;10189;49.546;7.906;2024-03-23T04:02:41;8.50;99.90
20057;DHT22;10189;49.546;7.906;2024-03-23T04:05:07;8.40;99.90
20057;DHT22;10189;49.546;7.906;2024-03-23T04:07:34;8.30;99.90
20057;DHT22;10189;49.546;7.906;2024-03-23T04:10:00;8.30;99.90
20057;DHT22;10189;49.546;7.906;2024-03-23T04:12:25;8.20;99.90
20057;DHT22;10189;49.546;7.906;2024-03-23T04:14:51;8.10;99.90
20057;DHT22;10189;49.546;7.906;2024-03-23T04:17:17;8.10;99.90
20057;DHT22;10189;49.546;7.906;2024-03-23T04:19:44;8.00;99.90
20057;DHT22;10189;49.546;7.906;2024-03-23T04:22:10;8.00;99.90
20057;DHT22;10189;49.546;7.906;2024-03-23T04:24:36;8.00;99.90
20057;DHT22;10189;49.546;7.906;2024-03-23T04:27:02;8.00;99.90
20057;DHT22;10189;49.546;7.906;2024-03-23T04:29:28;8.00;99.90
20057;DHT22;10189;49.546;7.906;2024-03-23T04:31:54;8.00;99.90
20057;DHT22;10189;49.546;7.906;2024-03-23T04:34:21;7.90;99.90
20057;DHT22;10189;49.546;7.906;2024-03-23T04:36:48;7.90;99.90
20057;DHT22;10189;49.546;7.906;2024-03-23T04:39:14;7.90;99.90
20057;DHT22;10189;49.546;7.906;2024-03-23T04:41:40;7.80;99.90
20057;DHT22;10189;49.546;7.906;2024-03-23T04:44:06;7.30;99.90
20057;DHT22;10189;49.546;7.906;2024-03-23T04:46:33;6.90;99.90
20057;DHT22;10189;49.546;7.906;2024-03-23T04:48:59;6.60;99.90
20057;DHT22;10189;49.546;7.906;2024-03-23T04:51:25;6.40;99.90
20057;DHT22;10189;49.546;7.906;2024-03-23T04:53:51;6.20;99.90
20057;DHT22;10189;49.546;7.906;2024-03-23T04:56:18;6.10;99.90
20057;DHT22;10189;49.546;7.906;2024-03-23T04:58:44;6.00;99.90
20057;DHT22;10189;49.546;7.906;2024-03-23T05:01:13;5.80;99.90
20057;DHT22;10189;49.546;7.906;2024-03-23T05:03:39;5.80;99.90
20057;DHT22;10189;49.546;7.906;2024-03-23T05:06:05;5.70;99.90
20057;DHT22;10189;49.546;7.906;2024-03-23T05:08:31;5.70;99.90
20057;DHT22;10189;49.546;7.906;2024-03-23T05:10:57;5.60;99.90
20057;DHT22;10189;49.546;7.906;2024-03-23T05:13:23;5.60;99.90
20057;DHT22;10189;49.546;7.906;2024-03-23T05:15:55;5.50;99.90
20057;DHT22;10189;49.546;7.906;2024-03-23T05:18:22;5.50;99.90
20057;DHT22;10189;49.546;7.906;2024-03-23T05:20:48;5.50;99.90
20057;DHT22;10189;49.546;7.906;2024-03-23T05:23:14;5.50;99.90
20057;DHT22;10189;49.546;7.906;2024-03-23T05:25:41;5.50;99.90
20057;DHT22;10189;49.546;7.906;2024-03-23T05:28:06;5.50;99.90
20057;DHT22;10189;49.546;7.906;2024-03-23T05:30:32;5.50;99.90
20057;DHT22;10189;49.546;7.906;2024-03-23T05:32:58;5.50;99.90
20057;DHT22;10189;49.546;7.906;2024-03-23T05:35:24;5.50;99.90
20057;DHT22;10189;49.546;7.906;2024-03-23T05:37:50;5.50;99.90
20057;DHT22;10189;49.546;7.906;2024-03-23T05:40:16;5.60;99.90
20057;DHT22;10189;49.546;7.906;2024-03-23T05:42:42;5.50;99.90
20057;DHT22;10189;49.546;7.906;2024-03-23T05:45:08;5.60;99.90
20057;DHT22;10189;49.546;7.906;2024-03-23T05:47:34;5.60;99.90
20057;DHT22;10189;49.546;7.906;2024-03-23T05:50:00;5.60;99.90
20057;DHT22;10189;49.546;7.906;2024-03-23T05:52:27;5.60;99.90
20057;DHT22;10189;49.546;7.906;2024-03-23T05:54:53;5.50;99.90
20057;DHT22;10189;49.546;7.906;2024-03-23T05:57:19;5.50;99.90
20057;DHT22;10189;49.546;7.906;2024-03-23T05:59:45;5.50;99.90
20057;DHT22;10189;49.546;7.906;2024-03-23T06:02:11;5.50;99.90
20057;DHT22;10189;49.546;7.906;2024-03-23T06:04:37;5.40;99.90
20057;DHT22;10189;49.546;7.906;2024-03-23T06:07:04;5.40;99.90
20057;DHT22;10189;49.546;7.906;2024-03-23T06:09:32;5.40;99.90
20057;DHT22;10189;49.546;7.906;2024-03-23T06:11:58;5.30;99.90
20057;DHT22;10189;49.546;7.906;2024-03-23T06:14:24;5.30;99.90
20057;DHT22;10189;49.546;7.906;2024-03-23T06:16:49;5.30;99.90
20057;DHT22;10189;49.546;7.906;2024-03-23T06:19:15;5.20;99.90
20057;DHT22;10189;49.546;7.906;2024-03-23T06:21:44;5.20;99.90
20057;DHT22;10189;49.546;7.906;2024-03-23T06:24:11;5.20;99.90
20057;DHT22;10189;49.546;7.906;2024-03-23T06:26:38;5.30;99.90
20057;DHT22;10189;49.546;7.906;2024-03-23T06:29:04;5.30;99.90
20057;DHT22;10189;49.546;7.906;2024-03-23T06:31:31;5.30;99.90
20057;DHT22;10189;49.546;7.906;2024-03-23T06:33:57;5.30;99.90
20057;DHT22;10189;49.546;7.906;2024-03-23T06:36:23;5.40;99.90
20057;DHT22;10189;49.546;7.906;2024-03-23T06:38:49;5.40;99.90
20057;DHT22;10189;49.546;7.906;2024-03-23T06:41:14;5.40;99.90
20057;DHT22;10189;49.546;7.906;2024-03-23T06:43:40;5.30;99.90
20057;DHT22;10189;49.546;7.906;2024-03-23T06:46:06;5.40;99.90
20057;DHT22;10189;49.546;7.906;2024-03-23T06:48:32;5.40;99.90
20057;DHT22;10189;49.546;7.906;2024-03-23T06:50:58;5.30;99.90
20057;DHT22;10189;49.546;7.906;2024-03-23T06:53:24;5.30;99.90
20057;DHT22;10189;49.546;7.906;2024-03-23T06:55:52;5.30;99.90
20057;DHT22;10189;49.546;7.906;2024-03-23T06:58:20;5.40;99.90
20057;DHT22;10189;49.546;7.906;2024-03-23T07:00:46;5.40;99.90
20057;DHT22;10189;49.546;7.906;2024-03-23T07:03:12;5.40;99.90
20057;DHT22;10189;49.546;7.906;2024-03-23T07:05:38;5.50;99.90
20057;DHT22;10189;49.546;7.906;2024-03-23T07:08:04;5.50;99.90
20057;DHT22;10189;49.546;7.906;2024-03-23T07:10:30;5.50;99.90
20057;DHT22;10189;49.546;7.906;2024-03-23T07:12:56;5.60;99.90
20057;DHT22;10189;49.546;7.906;2024-03-23T07:15:22;5.50;99.90
20057;DHT22;10189;49.546;7.906;2024-03-23T07:17:48;5.50;99.90
20057;DHT22;10189;49.546;7.906;2024-03-23T07:20:14;5.50;99.80
20057;DHT22;10189;49.546;7.906;2024-03-23T07:22:40;5.40;99.10
20057;DHT22;10189;49.546;7.906;2024-03-23T07:25:06;5.40;99.90
20057;DHT22;10189;49.546;7.906;2024-03-23T07:27:33;5.50;99.90
20057;DHT22;10189;49.546;7.906;2024-03-23T07:29:59;5.50;99.90
20057;DHT22;10189;49.546;7.906;2024-03-23T07:32:27;5.60;99.70
20057;DHT22;10189;49.546;7.906;2024-03-23T07:34:53;5.60;99.90
20057;DHT22;10189;49.546;7.906;2024-03-23T07:37:19;5.60;99.90
20057;DHT22;10189;49.546;7.906;2024-03-23T07:39:44;5.70;97.60
20057;DHT22;10189;49.546;7.906;2024-03-23T07:42:10;5.80;98.20
20057;DHT22;10189;49.546;7.906;2024-03-23T07:44:36;5.80;98.20
20057;DHT22;10189;49.546;7.906;2024-03-23T07:47:03;5.90;98.30
20057;DHT22;10189;49.546;7.906;2024-03-23T07:49:29;6.00;96.90
20057;DHT22;10189;49.546;7.906;2024-03-23T07:51:55;6.00;96.20
20057;DHT22;10189;49.546;7.906;2024-03-23T07:54:21;6.10;96.10
20057;DHT22;10189;49.546;7.906;2024-03-23T07:56:47;6.00;95.50
20057;DHT22;10189;49.546;7.906;2024-03-23T07:59:13;6.00;94.70
20057;DHT22;10189;49.546;7.906;2024-03-23T08:01:39;6.10;95.30
20057;DHT22;10189;49.546;7.906;2024-03-23T08:04:05;6.20;95.00
20057;DHT22;10189;49.546;7.906;2024-03-23T08:06:31;6.30;94.60
20057;DHT22;10189;49.546;7.906;2024-03-23T08:08:58;6.40;94.10
20057;DHT22;10189;49.546;7.906;2024-03-23T08:11:28;6.60;92.80
20057;DHT22;10189;49.546;7.906;2024-03-23T08:13:55;6.50;92.00
20057;DHT22;10189;49.546;7.906;2024-03-23T08:16:22;6.50;91.70
20057;DHT22;10189;49.546;7.906;2024-03-23T08:18:50;6.40;91.10
20057;DHT22;10189;49.546;7.906;2024-03-23T08:21:17;6.50;90.70
20057;DHT22;10189;49.546;7.906;2024-03-23T08:23:44;6.60;90.60
20057;DHT22;10189;49.546;7.906;2024-03-23T08:26:12;6.80;88.40
20057;DHT22;10189;49.546;7.906;2024-03-23T08:28:39;7.00;88.10
20057;DHT22;10189;49.546;7.906;2024-03-23T08:31:12;7.10;83.30
20057;DHT22;10189;49.546;7.906;2024-03-23T08:33:39;6.90;83.90
20057;DHT22;10189;49.546;7.906;2024-03-23T08:36:07;6.90;83.70
20057;DHT22;10189;49.546;7.906;2024-03-23T08:38:34;6.90;84.80
20057;DHT22;10189;49.546;7.906;2024-03-23T08:41:07;6.90;85.70
20057;DHT22;10189;49.546;7.906;2024-03-23T08:43:38;7.00;85.80
20057;DHT22;10189;49.546;7.906;2024-03-23T08:46:09;7.00;85.20
20057;DHT22;10189;49.546;7.906;2024-03-23T08:48:44;7.00;85.50
20057;DHT22;10189;49.546;7.906;2024-03-23T08:51:12;7.10;83.00
20057;DHT22;10189;49.546;7.906;2024-03-23T08:53:39;7.10;83.40
20057;DHT22;10189;49.546;7.906;2024-03-23T08:56:07;7.40;80.90
20057;DHT22;10189;49.546;7.906;2024-03-23T08:58:34;7.40;81.60
20057;DHT22;10189;49.546;7.906;2024-03-23T09:01:08;7.70;82.80
20057;DHT22;10189;49.546;7.906;2024-03-23T09:03:35;7.90;81.50
20057;DHT22;10189;49.546;7.906;2024-03-23T09:06:12;8.00;79.80
20057;DHT22;10189;49.546;7.906;2024-03-23T09:08:39;8.20;78.00
20057;DHT22;10189;49.546;7.906;2024-03-23T09:11:08;8.00;75.90
20057;DHT22;10189;49.546;7.906;2024-03-23T09:13:35;8.00;76.70
20057;DHT22;10189;49.546;7.906;2024-03-23T09:16:02;8.00;80.60
20057;DHT22;10189;49.546;7.906;2024-03-23T09:18:35;8.20;77.10
20057;DHT22;10189;49.546;7.906;2024-03-23T09:21:11;8.40;77.30
20057;DHT22;10189;49.546;7.906;2024-03-23T09:23:44;8.80;74.60
20057;DHT22;10189;49.546;7.906;2024-03-23T09:26:10;8.70;73.10
20057;DHT22;10189;49.546;7.906;2024-03-23T09:28:36;8.70;75.60
20057;DHT22;10189;49.546;7.906;2024-03-23T09:31:06;8.50;74.20
20057;DHT22;10189;49.546;7.906;2024-03-23T09:33:36;8.70;74.90
20057;DHT22;10189;49.546;7.906;2024-03-23T09:36:06;8.90;74.30
20057;DHT22;10189;49.546;7.906;2024-03-23T09:38:33;8.90;74.30
20057;DHT22;10189;49.546;7.906;2024-03-23T09:40:59;9.00;73.30
20057;DHT22;10189;49.546;7.906;2024-03-23T09:43:26;9.20;73.50
20057;DHT22;10189;49.546;7.906;2024-03-23T09:45:53;9.30;71.90
20057;DHT22;10189;49.546;7.906;2024-03-23T09:48:19;8.90;70.90
20057;DHT22;10189;49.546;7.906;2024-03-23T09:50:46;8.70;72.80
20057;DHT22;10189;49.546;7.906;2024-03-23T09:53:13;8.60;71.70
20057;DHT22;10189;49.546;7.906;2024-03-23T09:55:43;8.50;74.30
20057;DHT22;10189;49.546;7.906;2024-03-23T09:58:14;8.60;72.90
20057;DHT22;10189;49.546;7.906;2024-03-23T10:00:44;8.90;73.20
20057;DHT22;10189;49.546;7.906;2024-03-23T10:03:10;8.90;69.20
20057;DHT22;10189;49.546;7.906;2024-03-23T10:05:37;8.70;70.80
20057;DHT22;10189;49.546;7.906;2024-03-23T10:08:21;8.60;71.30
20057;DHT22;10189;49.546;7.906;2024-03-23T10:10:48;8.80;73.80
20057;DHT22;10189;49.546;7.906;2024-03-23T10:13:27;9.10;72.10
20057;DHT22;10189;49.546;7.906;2024-03-23T10:15:58;9.00;69.70
20057;DHT22;10189;49.546;7.906;2024-03-23T10:18:25;8.80;68.60
20057;DHT22;10189;49.546;7.906;2024-03-23T10:21:06;8.60;69.80
20057;DHT22;10189;49.546;7.906;2024-03-23T10:23:34;8.60;69.50
20057;DHT22;10189;49.546;7.906;2024-03-23T10:26:17;8.50;70.20
20057;DHT22;10189;49.546;7.906;2024-03-23T10:28:56;8.80;70.90
20057;DHT22;10189;49.546;7.906;2024-03-23T10:31:29;9.40;72.10
20057;DHT22;10189;49.546;7.906;2024-03-23T10:33:57;9.70;68.50
20057;DHT22;10189;49.546;7.906;2024-03-23T10:36:24;9.40;67.60
20057;DHT22;10189;49.546;7.906;2024-03-23T10:38:54;9.10;68.00
20057;DHT22;10189;49.546;7.906;2024-03-23T10:41:20;8.90;68.80
20057;DHT22;10189;49.546;7.906;2024-03-23T10:43:47;8.70;68.90
20057;DHT22;10189;49.546;7.906;2024-03-23T10:46:15;8.60;69.00
20057;DHT22;10189;49.546;7.906;2024-03-23T10:48:41;8.40;68.60
20057;DHT22;10189;49.546;7.906;2024-03-23T10:51:10;8.40;68.90
20057;DHT22;10189;49.546;7.906;2024-03-23T10:53:36;8.30;70.10
20057;DHT22;10189;49.546;7.906;2024-03-23T10:56:06;8.10;70.20
20057;DHT22;10189;49.546;7.906;2024-03-23T10:58:44;7.70;73.10
20057;DHT22;10189;49.546;7.906;2024-03-23T11:01:13;7.50;74.40
20057;DHT22;10189;49.546;7.906;2024-03-23T11:03:45;7.50;76.00
20057;DHT22;10189;49.546;7.906;2024-03-23T11:06:35;7.70;77.00
20057;DHT22;10189;49.546;7.906;2024-03-23T11:09:02;7.70;80.90
20057;DHT22;10189;49.546;7.906;2024-03-23T11:11:28;7.90;78.90
20057;DHT22;10189;49.546;7.906;2024-03-23T11:13:58;8.10;78.90
20057;DHT22;10189;49.546;7.906;2024-03-23T11:16:28;8.30;79.30
20057;DHT22;10189;49.546;7.906;2024-03-23T11:19:38;8.30;78.40
20057;DHT22;10189;49.546;7.906;2024-03-23T11:22:05;8.30;79.80
20057;DHT22;10189;49.546;7.906;2024-03-23T11:24:31;8.30;82.50
20057;DHT22;10189;49.546;7.906;2024-03-23T11:26:58;8.30;82.50
20057;DHT22;10189;49.546;7.906;2024-03-23T11:29:29;8.40;82.60
20057;DHT22;10189;49.546;7.906;2024-03-23T11:31:56;8.40;83.60
20057;DHT22;10189;49.546;7.906;2024-03-23T11:34:22;8.60;82.50
20057;DHT22;10189;49.546;7.906;2024-03-23T11:36:48;8.90;81.20
20057;DHT22;10189;49.546;7.906;2024-03-23T11:39:20;8.90;78.00
20057;DHT22;10189;49.546;7.906;2024-03-23T11:41:46;8.70;75.40
20057;DHT22;10189;49.546;7.906;2024-03-23T11:44:27;8.40;77.00
20057;DHT22;10189;49.546;7.906;2024-03-23T11:46:53;7.80;79.20
20057;DHT22;10189;49.546;7.906;2024-03-23T11:49:23;7.60;81.00
20057;DHT22;10189;49.546;7.906;2024-03-23T11:51:51;7.00;83.50
20057;DHT22;10189;49.546;7.906;2024-03-23T11:54:26;6.50;85.80
20057;DHT22;10189;49.546;7.906;2024-03-23T11:57:08;6.10;89.00
20057;DHT22;10189;49.546;7.906;2024-03-23T11:59:35;5.90;91.40
20057;DHT22;10189;49.546;7.906;2024-03-23T12:02:09;6.10;94.20
20057;DHT22;10189;49.546;7.906;2024-03-23T12:04:40;6.40;90.90
20057;DHT22;10189;49.546;7.906;2024-03-23T12:07:15;6.50;88.50
20057;DHT22;10189;49.546;7.906;2024-03-23T12:09:46;6.50;87.50
20057;DHT22;10189;49.546;7.906;2024-03-23T12:12:17;6.70;88.90
20057;DHT22;10189;49.546;7.906;2024-03-23T12:14:44;6.90;87.10
20057;DHT22;10189;49.546;7.906;2024-03-23T12:17:26;6.70;86.40
20057;DHT22;10189;49.546;7.906;2024-03-23T12:19:52;6.20;89.90
20057;DHT22;10189;49.546;7.906;2024-03-23T12:22:22;6.00;91.60
20057;DHT22;10189;49.546;7.906;2024-03-23T12:24:49;5.70;93.80
20057;DHT22;10189;49.546;7.906;2024-03-23T12:27:15;5.60;96.70
20057;DHT22;10189;49.546;7.906;2024-03-23T12:29:42;5.60;96.60
20057;DHT22;10189;49.546;7.906;2024-03-23T12:32:15;5.70;97.30
20057;DHT22;10189;49.546;7.906;2024-03-23T12:34:42;5.70;97.50
20057;DHT22;10189;49.546;7.906;2024-03-23T12:37:08;5.90;99.90
20057;DHT22;10189;49.546;7.906;2024-03-23T12:39:38;6.20;99.20
20057;DHT22;10189;49.546;7.906;2024-03-23T12:42:04;6.40;96.10
20057;DHT22;10189;49.546;7.906;2024-03-23T12:44:30;6.60;95.10
20057;DHT22;10189;49.546;7.906;2024-03-23T12:46:56;6.90;95.50
20057;DHT22;10189;49.546;7.906;2024-03-23T12:49:22;7.20;95.30
20057;DHT22;10189;49.546;7.906;2024-03-23T12:51:56;7.50;92.20
20057;DHT22;10189;49.546;7.906;2024-03-23T12:54:22;7.50;92.10
20057;DHT22;10189;49.546;7.906;2024-03-23T12:56:49;7.80;94.10
20057;DHT22;10189;49.546;7.906;2024-03-23T12:59:15;8.20;90.20
20057;DHT22;10189;49.546;7.906;2024-03-23T13:01:42;8.40;87.70
20057;DHT22;10189;49.546;7.906;2024-03-23T13:04:09;8.50;88.20
20057;DHT22;10189;49.546;7.906;2024-03-23T13:06:35;8.30;84.40
20057;DHT22;10189;49.546;7.906;2024-03-23T13:09:01;8.20;84.40
20057;DHT22;10189;49.546;7.906;2024-03-23T13:11:29;8.20;82.60
20057;DHT22;10189;49.546;7.906;2024-03-23T13:13:55;8.10;82.30
20057;DHT22;10189;49.546;7.906;2024-03-23T13:16:22;8.00;86.30
20057;DHT22;10189;49.546;7.906;2024-03-23T13:18:48;7.90;85.50
20057;DHT22;10189;49.546;7.906;2024-03-23T13:21:14;7.80;85.50
20057;DHT22;10189;49.546;7.906;2024-03-23T13:23:39;7.80;83.90
20057;DHT22;10189;49.546;7.906;2024-03-23T13:26:08;8.10;83.10
20057;DHT22;10189;49.546;7.906;2024-03-23T13:28:34;8.30;84.40
20057;DHT22;10189;49.546;7.906;2024-03-23T13:31:01;8.30;84.80
20057;DHT22;10189;49.546;7.906;2024-03-23T13:33:31;8.20;83.60
20057;DHT22;10189;49.546;7.906;2024-03-23T13:35:57;7.80;83.10
20057;DHT22;10189;49.546;7.906;2024-03-23T13:38:24;7.70;86.20
20057;DHT22;10189;49.546;7.906;2024-03-23T13:40:55;7.20;89.50
20057;DHT22;10189;49.546;7.906;2024-03-23T13:43:23;6.70;93.10
20057;DHT22;10189;49.546;7.906;2024-03-23T13:45:55;6.10;94.10
20057;DHT22;10189;49.546;7.906;2024-03-23T13:48:24;5.70;96.90
20057;DHT22;10189;49.546;7.906;2024-03-23T13:51:02;5.30;98.20
20057;DHT22;10189;49.546;7.906;2024-03-23T13:53:30;5.10;99.90
20057;DHT22;10189;49.546;7.906;2024-03-23T13:55:58;5.10;99.90
20057;DHT22;10189;49.546;7.906;2024-03-23T13:58:24;5.30;99.90
20057;DHT22;10189;49.546;7.906;2024-03-23T14:00:53;5.60;99.90
20057;DHT22;10189;49.546;7.906;2024-03-23T14:03:19;5.90;99.90
20057;DHT22;10189;49.546;7.906;2024-03-23T14:05:45;6.00;99.80
20057;DHT22;10189;49.546;7.906;2024-03-23T14:08:12;6.20;99.40
20057;DHT22;10189;49.546;7.906;2024-03-23T14:10:42;6.30;98.20
20057;DHT22;10189;49.546;7.906;2024-03-23T14:13:09;6.50;98.10
20057;DHT22;10189;49.546;7.906;2024-03-23T14:15:35;6.80;99.60
20057;DHT22;10189;49.546;7.906;2024-03-23T14:18:02;7.00;99.00
20057;DHT22;10189;49.546;7.906;2024-03-23T14:20:29;7.20;94.30
20057;DHT22;10189;49.546;7.906;2024-03-23T14:22:55;7.40;95.80
20057;DHT22;10189;49.546;7.906;2024-03-23T14:25:21;7.70;93.10
20057;DHT22;10189;49.546;7.906;2024-03-23T14:27:49;8.10;91.50
20057;DHT22;10189;49.546;7.906;2024-03-23T14:30:15;8.50;89.30
20057;DHT22;10189;49.546;7.906;2024-03-23T14:32:41;8.90;82.20
20057;DHT22;10189;49.546;7.906;2024-03-23T14:35:07;8.80;83.00
20057;DHT22;10189;49.546;7.906;2024-03-23T14:37:36;9.00;79.90
20057;DHT22;10189;49.546;7.906;2024-03-23T14:40:08;9.10;76.70
20057;DHT22;10189;49.546;7.906;2024-03-23T14:42:34;8.90;76.40
20057;DHT22;10189;49.546;7.906;2024-03-23T14:45:00;8.60;80.90
20057;DHT22;10189;49.546;7.906;2024-03-23T14:47:26;8.10;82.50
20057;DHT22;10189;49.546;7.906;2024-03-23T14:49:51;7.60;83.20
20057;DHT22;10189;49.546;7.906;2024-03-23T14:52:17;7.40;85.00
20057;DHT22;10189;49.546;7.906;2024-03-23T14:54:46;7.10;84.70
20057;DHT22;10189;49.546;7.906;2024-03-23T14:57:12;6.80;84.30
20057;DHT22;10189;49.546;7.906;2024-03-23T14:59:39;6.60;84.40
20057;DHT22;10189;49.546;7.906;2024-03-23T15:02:07;6.50;84.80
20057;DHT22;10189;49.546;7.906;2024-03-23T15:04:33;6.40;81.70
20057;DHT22;10189;49.546;7.906;2024-03-23T15:07:00;6.20;83.60
20057;DHT22;10189;49.546;7.906;2024-03-23T15:09:26;5.90;89.70
20057;DHT22;10189;49.546;7.906;2024-03-23T15:11:52;5.20;94.30
20057;DHT22;10189;49.546;7.906;2024-03-23T15:14:20;4.60;98.90
20057;DHT22;10189;49.546;7.906;2024-03-23T15:16:46;4.20;99.90
20057;DHT22;10189;49.546;7.906;2024-03-23T15:19:15;4.30;99.90
20057;DHT22;10189;49.546;7.906;2024-03-23T15:21:43;4.50;99.90
20057;DHT22;10189;49.546;7.906;2024-03-23T15:24:09;4.70;99.90
20057;DHT22;10189;49.546;7.906;2024-03-23T15:26:37;4.70;99.90
20057;DHT22;10189;49.546;7.906;2024-03-23T15:29:03;4.60;99.90
20057;DHT22;10189;49.546;7.906;2024-03-23T15:31:35;4.50;99.90
20057;DHT22;10189;49.546;7.906;2024-03-23T15:34:02;4.40;99.90
20057;DHT22;10189;49.546;7.906;2024-03-23T15:36:29;4.30;99.90
20057;DHT22;10189;49.546;7.906;2024-03-23T15:38:55;4.20;99.90
20057;DHT22;10189;49.546;7.906;2024-03-23T15:41:21;3.90;99.90
20057;DHT22;10189;49.546;7.906;2024-03-23T15:43:49;3.80;99.90
20057;DHT22;10189;49.546;7.906;2024-03-23T15:46:15;3.80;99.90
20057;DHT22;10189;49.546;7.906;2024-03-23T15:48:41;3.80;99.90
20057;DHT22;10189;49.546;7.906;2024-03-23T15:51:12;3.90;99.90
20057;DHT22;10189;49.546;7.906;2024-03-23T15:53:39;4.00;99.90
20057;DHT22;10189;49.546;7.906;2024-03-23T15:56:06;4.10;99.90
20057;DHT22;10189;49.546;7.906;2024-03-23T15:58:33;4.30;99.90
20057;DHT22;10189;49.546;7.906;2024-03-23T16:03:30;4.50;99.90
20057;DHT22;10189;49.546;7.906;2024-03-23T16:06:02;4.50;99.90
20057;DHT22;10189;49.546;7.906;2024-03-23T16:08:33;4.50;99.90
20057;DHT22;10189;49.546;7.906;2024-03-23T16:11:04;4.40;99.90
20057;DHT22;10189;49.546;7.906;2024-03-23T16:13:32;4.40;99.90
20057;DHT22;10189;49.546;7.906;2024-03-23T16:16:00;4.30;99.90
20057;DHT22;10189;49.546;7.906;2024-03-23T16:18:33;4.00;99.90
20057;DHT22;10189;49.546;7.906;2024-03-23T16:21:01;3.90;99.90
20057;DHT22;10189;49.546;7.906;2024-03-23T16:23:30;3.70;99.90
20057;DHT22;10189;49.546;7.906;2024-03-23T16:26:03;3.60;99.90
20057;DHT22;10189;49.546;7.906;2024-03-23T16:28:36;3.60;99.90
20057;DHT22;10189;49.546;7.906;2024-03-23T16:31:05;3.50;99.90
20057;DHT22;10189;49.546;7.906;2024-03-23T16:33:32;3.50;99.90
20057;DHT22;10189;49.546;7.906;2024-03-23T16:36:08;3.50;99.90
20057;DHT22;10189;49.546;7.906;2024-03-23T16:38:36;3.40;99.90
20057;DHT22;10189;49.546;7.906;2024-03-23T16:41:10;3.40;99.90